Terminal Aerodrome Forecast
Issued by NWS Cleveland, OH

Home | Current Version | Previous Version | Text Only | Print | Product List | Glossary Off
Versions: 1 2 3 4 5 6 7 8 9 10 11 12 13 14 15 16 17 18

000
FTUS41 KCLE 030750 AAA
TAFYNG
TAF AMD
KYNG 030750Z 0308/0406 04005KT 3SM BR OVC012
     FM031500 33005KT P6SM BKN060
     FM040200 VRB03KT P6SM BKN100
     FM040500 VRB03KT P6SM BKN250=

USA.gov is the U.S. government's official web portal to all federal, state and local government web resources and services.